Time;durP1;ratioP1;P1;durP2;ratioP2;P2;SDS_P1;SDS_P2;PMS_P1;PMS_P2;Temp;Humidity;BMP_temperature;BMP_pressure;BME280_temperature;BME280_humidity;BME280_pressure;Samples;Min_cycle;Max_cycle;Signal;HPM_P1;HPM_P2
2022/05/25 00:02:03;;;;;;;6.53;2.85;;;;;;;-146.64;100.00;118402.03;5067021;28;19927;-79
2022/05/25 00:04:29;;;;;;;3.90;2.25;;;;;;;-146.64;100.00;118402.03;5028820;28;20052;-80
2022/05/25 00:06:54;;;;;;;4.28;2.00;;;;;;;-146.64;100.00;118402.03;5053597;28;20029;-80
2022/05/25 00:09:20;;;;;;;9.80;2.80;;;;;;;-146.64;100.00;118402.03;5055437;28;20131;-79
2022/05/25 00:11:47;;;;;;;9.90;1.97;;;;;;;-146.64;100.00;118402.03;5039279;28;20037;-80
2022/05/25 00:14:12;;;;;;;8.35;2.45;;;;;;;-146.64;100.00;118402.03;5057886;28;20103;-80
2022/05/25 00:16:38;;;;;;;4.40;2.27;;;;;;;-146.64;100.00;118402.03;5057333;28;20056;-80
2022/05/25 00:21:48;;;;;;;10.93;2.38;;;;;;;-146.64;100.00;118402.03;5074312;28;20063;-80
2022/05/25 00:24:13;;;;;;;4.87;2.60;;;;;;;-146.64;100.00;118402.03;5055649;28;20040;-79
2022/05/25 00:26:39;;;;;;;6.80;2.17;;;;;;;-146.64;100.00;118402.03;5056255;28;20123;-80
2022/05/25 00:29:04;;;;;;;8.13;2.80;;;;;;;-146.64;100.00;118402.03;5051922;28;20365;-79
2022/05/25 00:31:32;;;;;;;4.27;2.33;;;;;;;-146.64;100.00;118402.03;5056516;28;20040;-79
2022/05/25 00:33:58;;;;;;;3.90;1.95;;;;;;;-146.64;100.00;118402.03;5051020;28;20037;-80
2022/05/25 00:36:24;;;;;;;4.57;2.00;;;;;;;-146.64;100.00;118402.03;5046623;28;20025;-80
2022/05/25 00:38:49;;;;;;;8.77;2.43;;;;;;;-146.64;100.00;118402.03;5038988;28;20047;-80
2022/05/25 00:41:14;;;;;;;5.00;2.30;;;;;;;-146.64;100.00;118402.03;5034314;28;20395;-79
2022/05/25 00:43:42;;;;;;;8.27;2.63;;;;;;;-146.64;100.00;118402.03;5054334;28;20028;-79
2022/05/25 00:46:16;;;;;;;6.90;2.58;;;;;;;-146.64;100.00;118402.03;5073377;28;20368;-79
2022/05/25 00:48:48;;;;;;;7.82;3.17;;;;;;;-146.64;100.00;118402.03;5056801;28;20029;-79
2022/05/25 00:51:21;;;;;;;9.00;2.78;;;;;;;-146.64;100.00;118402.03;5040832;28;20044;-80
2022/05/25 00:54:17;;;;;;;7.68;2.72;;;;;;;-146.64;100.00;118402.03;5064078;28;20024;-80
2022/05/25 00:56:45;;;;;;;12.88;2.97;;;;;;;-146.64;100.00;118402.03;5063649;28;20024;-81
2022/05/25 00:59:15;;;;;;;9.15;3.08;;;;;;;-146.64;100.00;118402.03;5073510;28;20036;-80
2022/05/25 01:01:41;;;;;;;13.35;4.10;;;;;;;-146.64;100.00;118402.03;5070153;28;20047;-79
2022/05/25 01:04:08;;;;;;;12.48;3.25;;;;;;;-146.64;100.00;118402.03;5066181;28;20028;-78
2022/05/25 01:06:53;;;;;;;7.97;2.97;;;;;;;-146.64;100.00;118402.03;5067326;28;20361;-78
2022/05/25 01:09:22;;;;;;;14.30;4.60;;;;;;;-146.64;100.00;118402.03;5066708;28;20119;-78
2022/05/25 01:12:11;;;;;;;10.15;3.42;;;;;;;-146.64;100.00;118402.03;5068954;28;20021;-79
2022/05/25 01:14:54;;;;;;;10.02;3.15;;;;;;;-146.64;100.00;118402.03;5068152;28;20037;-79
2022/05/25 01:17:25;;;;;;;8.95;2.92;;;;;;;-146.64;100.00;118402.03;5067463;28;20137;-79
2022/05/25 01:20:08;;;;;;;10.55;3.53;;;;;;;-146.64;100.00;118402.03;5037900;28;20045;-79
2022/05/25 01:22:54;;;;;;;7.13;3.50;;;;;;;-146.64;100.00;118402.03;5056661;28;20098;-79
2022/05/25 01:25:44;;;;;;;12.85;3.85;;;;;;;-146.64;100.00;118402.03;5046675;28;20086;-79
2022/05/25 01:28:25;;;;;;;17.35;4.63;;;;;;;-146.64;100.00;118402.03;5049454;28;20039;-79
2022/05/25 01:30:53;;;;;;;11.02;3.75;;;;;;;-146.64;100.00;118402.03;5070766;28;20033;-79
2022/05/25 01:33:29;;;;;;;11.55;3.47;;;;;;;-146.64;100.00;118402.03;5063622;28;20028;-78
2022/05/25 01:36:17;;;;;;;7.32;3.10;;;;;;;-146.64;100.00;118402.03;5063524;28;20155;-78
2022/05/25 01:38:50;;;;;;;13.75;3.70;;;;;;;-146.64;100.00;118402.03;5054940;28;20029;-79
2022/05/25 01:41:36;;;;;;;12.75;3.28;;;;;;;-146.64;100.00;118402.03;5055634;28;20036;-78
2022/05/25 01:44:07;;;;;;;11.27;3.40;;;;;;;-146.64;100.00;118402.03;5037973;28;20399;-78
2022/05/25 01:46:37;;;;;;;12.90;3.72;;;;;;;-146.64;100.00;118402.03;5054857;28;20037;-79
2022/05/25 01:49:07;;;;;;;10.13;3.80;;;;;;;-146.64;100.00;118402.03;5054532;28;20029;-78
2022/05/25 01:51:44;;;;;;;13.35;4.22;;;;;;;-146.64;100.00;118402.03;5028541;28;20131;-79
2022/05/25 01:54:12;;;;;;;10.35;3.30;;;;;;;-146.64;100.00;118402.03;5072249;28;20028;-79
2022/05/25 01:56:40;;;;;;;10.27;3.55;;;;;;;-146.64;100.00;118402.03;5072503;28;20032;-80
2022/05/25 01:59:07;;;;;;;10.55;3.45;;;;;;;-146.64;100.00;118402.03;5069455;28;20446;-78
2022/05/25 02:01:33;;;;;;;11.48;3.80;;;;;;;-146.64;100.00;118402.03;5038803;28;20123;-79
2022/05/25 02:07:02;;;;;;;10.40;3.50;;;;;;;-146.64;100.00;118402.03;5066987;28;20063;-79
2022/05/25 02:09:59;;;;;;;13.63;4.07;;;;;;;-146.64;100.00;118402.03;5054801;28;20062;-79
2022/05/25 02:12:53;;;;;;;8.82;3.60;;;;;;;-146.64;100.00;118402.03;5054331;28;20150;-79
2022/05/25 02:15:33;;;;;;;10.77;4.20;;;;;;;-146.64;100.00;118402.03;5038732;28;20182;-79
2022/05/25 02:18:22;;;;;;;15.90;4.32;;;;;;;-146.64;100.00;118402.03;5059716;28;20097;-79
2022/05/25 02:20:55;;;;;;;8.35;3.72;;;;;;;-146.64;100.00;118402.03;5036500;28;20041;-79
2022/05/25 02:23:36;;;;;;;15.68;5.10;;;;;;;-146.64;100.00;118402.03;5058078;28;20024;-78
2022/05/25 02:26:07;;;;;;;11.30;4.18;;;;;;;-146.64;100.00;118402.03;5069346;28;20031;-79
2022/05/25 02:28:40;;;;;;;11.18;4.55;;;;;;;-146.64;100.00;118402.03;5049307;28;20086;-79
2022/05/25 02:31:11;;;;;;;13.07;4.88;;;;;;;-146.64;100.00;118402.03;5054971;28;20486;-80
2022/05/25 02:33:39;;;;;;;8.85;4.30;;;;;;;-146.64;100.00;118402.03;5039338;28;20064;-80
2022/05/25 02:36:06;;;;;;;13.15;5.00;;;;;;;-146.64;100.00;118402.03;5036517;28;20373;-79
2022/05/25 02:38:31;;;;;;;;;;;;;;;-146.64;100.00;118402.03;5036099;28;20037;-80
2022/05/25 02:41:05;;;;;;;13.90;4.65;;;;;;;-146.64;100.00;118402.03;5070486;28;19988;-78
2022/05/25 02:43:35;;;;;;;12.35;4.70;;;;;;;-146.64;100.00;118402.03;5066402;28;20059;-78
2022/05/25 02:46:01;;;;;;;10.90;4.88;;;;;;;-146.64;100.00;118402.03;5071407;28;20032;-78
2022/05/25 02:48:26;;;;;;;14.50;5.70;;;;;;;-146.64;100.00;118402.03;5053603;28;20463;-79
2022/05/25 02:50:51;;;;;;;13.13;5.20;;;;;;;-146.64;100.00;118402.03;5053972;28;20020;-78
2022/05/25 02:53:17;;;;;;;12.48;5.50;;;;;;;-146.64;100.00;118402.03;5036910;28;20024;-77
2022/05/25 02:55:42;;;;;;;12.77;5.90;;;;;;;-146.64;100.00;118402.03;5054697;28;20116;-79
2022/05/25 02:58:07;;;;;;;20.83;5.72;;;;;;;-146.64;100.00;118402.03;5069624;28;20122;-78
2022/05/25 03:00:33;;;;;;;15.33;5.47;;;;;;;-146.64;100.00;118402.03;5053561;28;20103;-79
2022/05/25 03:02:58;;;;;;;15.15;5.68;;;;;;;-146.64;100.00;118402.03;5059050;28;20028;-79
2022/05/25 03:05:25;;;;;;;15.50;5.82;;;;;;;-146.64;100.00;118402.03;5052533;28;20025;-78
2022/05/25 03:07:50;;;;;;;9.15;6.68;;;;;;;-146.64;100.00;118402.03;5054132;28;20063;-79
2022/05/25 03:10:16;;;;;;;12.77;6.60;;;;;;;-146.64;100.00;118402.03;5053093;28;20068;-78
2022/05/25 03:12:44;;;;;;;13.85;6.60;;;;;;;-146.64;100.00;118402.03;5060272;28;20032;-78
2022/05/25 03:15:10;;;;;;;13.32;6.30;;;;;;;-146.64;100.00;118402.03;5037701;28;20056;-78
2022/05/25 03:17:35;;;;;;;13.17;6.93;;;;;;;-146.64;100.00;118402.03;5046088;28;20078;-79
2022/05/25 03:20:00;;;;;;;13.73;6.70;;;;;;;-146.64;100.00;118402.03;5057987;28;20040;-79
2022/05/25 03:22:26;;;;;;;15.93;7.40;;;;;;;-146.64;100.00;118402.03;5058689;28;20043;-79
2022/05/25 03:24:51;;;;;;;13.38;6.90;;;;;;;-146.64;100.00;118402.03;5050908;28;20047;-78
2022/05/25 03:27:17;;;;;;;13.75;7.97;;;;;;;-146.64;100.00;118402.03;5054041;28;20094;-78
2022/05/25 03:29:43;;;;;;;16.23;8.02;;;;;;;-146.64;100.00;118402.03;5050644;28;20040;-79
2022/05/25 03:32:09;;;;;;;17.90;8.07;;;;;;;-146.64;100.00;118402.03;5033267;28;20120;-79
2022/05/25 03:34:36;;;;;;;13.68;8.20;;;;;;;-146.64;100.00;118402.03;5053092;28;20028;-79
2022/05/25 03:37:02;;;;;;;14.70;8.27;;;;;;;-146.64;100.00;118402.03;5052933;28;20033;-79
2022/05/25 03:39:28;;;;;;;15.15;8.02;;;;;;;-146.64;100.00;118402.03;5054459;28;20059;-78
2022/05/25 03:41:59;;;;;;;17.35;8.68;;;;;;;-146.64;100.00;118402.03;5053173;28;20040;-79
2022/05/25 03:44:24;;;;;;;16.88;8.50;;;;;;;-146.64;100.00;118402.03;5053319;28;20032;-79
2022/05/25 03:46:50;;;;;;;14.10;8.47;;;;;;;-146.64;100.00;118402.03;5052608;28;20126;-80
2022/05/25 03:49:16;;;;;;;18.97;9.47;;;;;;;-146.64;100.00;118402.03;5051550;28;20068;-79
2022/05/25 03:51:42;;;;;;;16.20;9.00;;;;;;;-146.64;100.00;118402.03;5053097;28;20118;-79
2022/05/25 03:54:08;;;;;;;16.92;9.13;;;;;;;-146.64;100.00;118402.03;5069972;28;20028;-79
2022/05/25 03:56:33;;;;;;;17.13;9.00;;;;;;;-146.64;100.00;118402.03;5047580;28;20037;-79
2022/05/25 03:58:58;;;;;;;12.57;8.83;;;;;;;-146.64;100.00;118402.03;5033470;28;20484;-79
2022/05/25 04:01:25;;;;;;;18.60;9.45;;;;;;;-146.64;100.00;118402.03;5025700;28;20041;-80
2022/05/25 04:03:50;;;;;;;19.50;9.45;;;;;;;-146.64;100.00;118402.03;5047547;28;20042;-79
2022/05/25 04:06:19;;;;;;;15.68;9.45;;;;;;;-146.64;100.00;118402.03;5051255;28;20119;-79
2022/05/25 04:08:45;;;;;;;18.15;9.73;;;;;;;-146.64;100.00;118402.03;5070196;28;20097;-80
2022/05/25 04:11:11;;;;;;;18.93;10.10;;;;;;;-146.64;100.00;118402.03;5069457;28;20025;-79
2022/05/25 04:13:37;;;;;;;17.45;9.50;;;;;;;-146.64;100.00;118402.03;5053160;28;20029;-80
2022/05/25 04:16:02;;;;;;;27.83;10.27;;;;;;;-146.64;100.00;118402.03;5051910;28;20032;-79
2022/05/25 04:18:28;;;;;;;22.10;9.63;;;;;;;-146.64;100.00;118402.03;5033517;28;20020;-79
2022/05/25 04:20:53;;;;;;;16.70;9.37;;;;;;;-146.64;100.00;118402.03;5053180;28;20055;-79
2022/05/25 04:23:20;;;;;;;21.73;9.30;;;;;;;-146.64;100.00;118402.03;5052377;28;20379;-80
2022/05/25 04:25:45;;;;;;;13.88;9.30;;;;;;;-146.64;100.00;118402.03;5070478;28;20465;-80
2022/05/25 04:28:11;;;;;;;22.87;10.47;;;;;;;-146.64;100.00;118402.03;5047338;28;20553;-78
2022/05/25 04:30:36;;;;;;;16.92;10.02;;;;;;;-146.64;100.00;118402.03;5034618;28;20059;-78
2022/05/25 04:33:02;;;;;;;22.70;10.33;;;;;;;-146.64;100.00;118402.03;5035059;28;20422;-78
2022/05/25 04:35:27;;;;;;;20.70;9.95;;;;;;;-146.64;100.00;118402.03;5052417;28;20120;-77
2022/05/25 04:37:54;;;;;;;20.43;9.90;;;;;;;-146.64;100.00;118402.03;5026104;28;20024;-78
2022/05/25 04:40:30;;;;;;;23.13;9.75;;;;;;;-146.64;100.00;118402.03;5069713;28;20084;-78
2022/05/25 04:42:57;;;;;;;25.48;11.32;;;;;;;-146.64;100.00;118402.03;5062407;28;20071;-78
2022/05/25 04:45:25;;;;;;;20.50;10.93;;;;;;;-146.64;100.00;118402.03;5071099;28;20024;-80
2022/05/25 04:47:50;;;;;;;21.33;10.30;;;;;;;-146.64;100.00;118402.03;5050106;28;20040;-79
2022/05/25 04:50:19;;;;;;;20.57;10.97;;;;;;;-146.64;100.00;118402.03;5068794;28;20033;-78
2022/05/25 04:52:44;;;;;;;17.15;10.40;;;;;;;-146.64;100.00;118402.03;5053414;28;20115;-78
2022/05/25 04:57:19;;;;;;;21.37;12.13;;;;;;;-146.64;100.00;118402.03;5052164;28;20143;-77
2022/05/25 04:57:57;;;;;;;22.73;11.63;;;;;;;-146.64;100.00;118402.03;5050406;28;20066;-79
2022/05/25 05:00:23;;;;;;;26.42;11.27;;;;;;;-146.64;100.00;118402.03;5060857;28;20113;-79
2022/05/25 05:02:49;;;;;;;25.93;12.37;;;;;;;-146.64;100.00;118402.03;5067328;28;20558;-79
2022/05/25 05:05:16;;;;;;;24.17;11.00;;;;;;;-146.64;100.00;118402.03;5051721;28;20382;-78
2022/05/25 05:07:42;;;;;;;17.20;10.45;;;;;;;-146.64;100.00;118402.03;5038973;28;20025;-79
2022/05/25 05:10:08;;;;;;;27.80;11.47;;;;;;;-146.64;100.00;118399.94;5051076;28;20063;-78
2022/05/25 05:12:34;;;;;;;15.53;10.97;;;;;;;-146.64;100.00;117598.47;5067916;28;20034;-79
2022/05/25 05:15:00;;;;;;;26.48;11.07;;;;;;;-146.64;100.00;116263.06;5052761;28;20041;-80
2022/05/25 05:17:25;;;;;;;24.03;10.87;;;;;;;-146.64;100.00;113326.63;5069914;28;20372;-79
2022/05/25 05:19:51;;;;;;;20.13;9.77;;;;;;;-146.64;100.00;106128.03;5063239;28;20028;-79
2022/05/25 05:22:17;;;;;;;22.83;9.83;;;;;;;-146.64;100.00;94689.88;5041607;28;20404;-80
2022/05/25 05:24:42;;;;;;;25.87;9.90;;;;;;;-146.64;100.00;81430.28;5063007;28;20483;-80
2022/05/25 05:27:08;;;;;;;22.77;8.73;;;;;;;-146.64;100.00;84343.66;5051195;28;20284;-80
2022/05/25 05:29:34;;;;;;;15.67;9.40;;;;;;;-146.64;100.00;86463.78;5067766;28;20468;-79
2022/05/25 05:32:00;;;;;;;16.47;8.63;;;;;;;-146.64;100.00;91238.19;5045090;28;20126;-79
2022/05/25 05:34:27;;;;;;;18.60;11.02;;;;;;;-146.64;100.00;90707.41;5042129;28;20032;-79
2022/05/25 05:36:59;;;;;;;22.35;10.18;;;;;;;-146.64;100.00;80900.81;5064515;28;20036;-79
2022/05/25 05:39:26;;;;;;;22.45;9.73;;;;;;;-146.64;100.00;66895.09;5030770;28;20547;-80
2022/05/25 05:41:57;;;;;;;17.60;9.68;;;;;;;-146.64;100.00;38903.94;5067364;28;20102;-79
2022/05/25 05:44:25;;;;;;;20.23;9.10;;;;;;;-146.64;100.00;39522.00;5029342;28;20075;-80
2022/05/25 05:46:52;;;;;;;19.67;10.50;;;;;;;-146.64;100.00;36035.94;5061106;28;20029;-80
2022/05/25 05:49:17;;;;;;;21.35;10.52;;;;;;;-146.64;100.00;36612.66;5049569;28;20024;-79
2022/05/25 05:51:43;;;;;;;19.93;12.47;;;;;;;-146.64;100.00;53201.31;5066416;28;20064;-79
2022/05/25 05:54:08;;;;;;;21.30;13.67;;;;;;;-146.64;100.00;70325.94;5051593;28;20024;-79
2022/05/25 05:56:34;;;;;;;22.90;13.03;;;;;;;-146.64;100.00;75609.88;5032497;28;20017;-79
2022/05/25 05:59:01;;;;;;;26.15;14.07;;;;;;;-146.64;100.00;76931.94;5066120;28;20043;-79
2022/05/25 06:01:26;;;;;;;22.80;13.35;;;;;;;-146.64;100.00;73231.22;5067774;28;20037;-79
2022/05/25 06:03:51;;;;;;;20.50;13.53;;;;;;;-146.64;100.00;78254.47;5065675;28;20087;-80
2022/05/25 06:06:17;;;;;;;22.53;15.63;;;;;;;-146.64;100.00;84608.59;5031706;28;20497;-79
2022/05/25 06:08:46;;;;;;;29.87;16.27;;;;;;;-146.64;100.00;90972.78;5045834;28;20037;-79
2022/05/25 06:11:15;;;;;;;26.45;16.63;;;;;;;-146.64;100.00;96815.47;5047596;28;20116;-78
2022/05/25 06:13:40;;;;;;;30.73;16.52;;;;;;;-146.64;100.00;97612.84;5045798;28;20055;-79
2022/05/25 06:21:34;;;;;;;29.65;17.38;;;;;;;-146.64;100.00;96018.25;5072591;28;20040;-79
2022/05/25 06:23:59;;;;;;;35.70;18.93;;;;;;;-146.64;100.00;95752.53;5065787;28;20040;-80
2022/05/25 06:26:27;;;;;;;36.53;18.30;;;;;;;-146.64;100.00;95752.53;5037360;28;20039;-79
2022/05/25 06:28:52;;;;;;;28.35;18.25;;;;;;;-146.64;100.00;96549.72;5051304;28;20031;-81
2022/05/25 06:31:19;;;;;;;27.60;18.53;;;;;;;-146.64;100.00;101336.06;5054795;28;20033;-79
2022/05/25 06:33:45;;;;;;;31.35;18.70;;;;;;;-146.64;100.00;99739.97;5069088;28;20025;-79
2022/05/25 06:36:14;;;;;;;26.93;17.30;;;;;;;-146.64;100.00;99739.97;5052973;28;20036;-79
2022/05/25 06:38:39;;;;;;;27.00;17.25;;;;;;;-146.64;100.00;100005.94;5067721;28;20056;-79
2022/05/25 06:41:05;;;;;;;29.33;17.20;;;;;;;-146.64;100.00;98942.19;5049805;28;20089;-80
2022/05/25 06:43:31;;;;;;;29.40;16.57;;;;;;;-146.64;100.00;98144.53;5031836;28;20498;-80
2022/05/25 06:45:57;;;;;;;28.70;17.08;;;;;;;-146.64;100.00;96815.47;5051686;28;20039;-80
2022/05/25 06:48:22;;;;;;;32.10;17.23;;;;;;;-146.64;100.00;94955.53;5048280;28;20036;-80
2022/05/25 06:50:47;;;;;;;23.93;16.40;;;;;;;-146.64;100.00;87259.13;5033244;28;20047;-80
2022/05/25 06:53:13;;;;;;;23.93;15.30;;;;;;;-146.64;100.00;65048.97;5047661;28;20052;-81
2022/05/25 06:55:38;;;;;;;26.47;14.80;;;;;;;-146.64;100.00;38382.13;5052405;28;20033;-81
2022/05/25 06:58:03;;;;;;;26.43;12.57;;;;;;;-146.64;100.00;48509.09;5045485;28;20052;-80
2022/05/25 07:00:29;;;;;;;22.93;12.90;;;;;;;-146.64;100.00;62413.09;5053117;28;20099;-80
2022/05/25 07:02:54;;;;;;;23.77;14.07;;;;;;;-146.64;100.00;39894.50;5050421;28;20108;-79
2022/05/25 07:05:19;;;;;;;25.97;12.27;;;;;;;-146.64;100.00;49249.69;5062845;28;20028;-81
2022/05/25 07:07:45;;;;;;;17.10;12.23;;;;;;;-146.64;100.00;61095.81;5064905;28;21051;-79
2022/05/25 07:10:10;;;;;;;24.47;12.00;;;;;;;-146.64;100.00;61622.69;5049129;28;20044;-79
2022/05/25 07:12:35;;;;;;;25.60;12.30;;;;;;;-146.64;100.00;69533.94;5050327;28;20031;-80
2022/05/25 07:15:01;;;;;;;20.17;12.50;;;;;;;-146.64;100.00;75345.50;5049604;28;20020;-79
2022/05/25 07:17:26;;;;;;;23.23;12.30;;;;;;;-146.64;100.00;80106.72;5050200;28;20044;-79
2022/05/25 07:19:51;;;;;;;22.03;13.87;;;;;;;-146.64;100.00;84608.59;5047931;28;20032;-79
2022/05/25 07:22:17;;;;;;;22.83;13.50;;;;;;;-146.64;100.00;86463.78;5062462;28;20017;-80
2022/05/25 07:24:43;;;;;;;25.03;13.73;;;;;;;-146.64;100.00;85138.56;5033103;28;20039;-80
2022/05/25 07:27:08;;;;;;;19.87;13.83;;;;;;;-146.64;100.00;87789.44;5071973;28;20035;-80
2022/05/25 07:29:33;;;;;;;29.13;15.30;;;;;;;-146.64;100.00;86728.88;5037466;28;20040;-80
2022/05/25 07:32:02;;;;;;;29.97;14.60;;;;;;;-146.64;100.00;85403.56;5050732;28;20607;-79
2022/05/25 07:34:34;;;;;;;20.63;14.23;;;;;;;-146.64;100.00;81959.81;5046752;28;20032;-79
2022/05/25 07:37:02;;;;;;;23.88;14.60;;;;;;;-146.64;100.00;77725.41;5027183;28;20059;-79
2022/05/25 07:39:32;;;;;;;23.38;13.80;;;;;;;-146.64;100.00;76667.50;5035634;28;20028;-80
2022/05/25 07:41:59;;;;;;;25.58;14.02;;;;;;;-146.64;100.00;69533.94;5067586;28;20035;-79
2022/05/25 07:44:32;;;;;;;21.23;13.07;;;;;;;-146.64;100.00;38259.38;5053702;28;20028;-79
2022/05/25 07:46:57;;;;;;;23.17;11.82;;;;;;;-146.64;100.00;36563.56;5069335;28;20106;-80
2022/05/25 07:49:23;;;;;;;22.57;10.93;;;;;;;-146.64;100.00;36845.81;5036044;28;20040;-80
2022/05/25 07:51:49;;;;;;;19.92;10.13;;;;;;;-146.64;100.00;36498.13;5066244;28;20494;-80
2022/05/25 07:54:15;;;;;;;14.40;9.95;;;;;;;-146.64;100.00;36647.41;5068238;28;20068;-79
2022/05/25 07:56:40;;;;;;;21.23;9.70;;;;;;;-146.64;100.00;36614.69;5072059;28;20055;-80
2022/05/25 07:59:11;;;;;;;16.53;9.40;;;;;;;-146.64;100.00;36678.09;5068475;28;20410;-79
2022/05/25 08:07:18;;;;;;;15.77;8.40;;;;;;;-146.64;100.00;36937.84;5055947;28;20091;-80
2022/05/25 08:09:43;;;;;;;;;;;;;;;-146.64;100.00;36882.63;5070430;28;20513;-78
2022/05/25 08:12:10;;;;;;;19.00;6.97;;;;;;;-146.64;100.00;36739.44;5052276;28;20026;-78
2022/05/25 08:14:36;;;;;;;14.93;7.88;;;;;;;-146.64;100.00;37136.25;5051256;28;20036;-78
2022/05/25 08:17:02;;;;;;;15.37;7.50;;;;;;;-146.64;100.00;36927.63;5051265;28;20043;-78
2022/05/25 08:19:27;;;;;;;18.33;7.28;;;;;;;-146.64;100.00;36688.31;5052605;28;20540;-78
2022/05/25 08:21:53;;;;;;;8.47;5.27;;;;;;;-146.64;100.00;37261.03;5052900;28;20040;-78
2022/05/25 08:24:19;;;;;;;14.47;5.53;;;;;;;-146.64;100.00;37369.44;5068039;28;20049;-78
2022/05/25 08:26:44;;;;;;;15.63;5.10;;;;;;;-146.64;100.00;37414.44;5067954;28;20060;-79
2022/05/25 08:29:10;;;;;;;13.93;4.53;;;;;;;-146.64;100.00;37604.69;5031889;28;20039;-78
2022/05/25 08:31:35;;;;;;;7.73;3.67;;;;;;;-146.64;100.00;37524.91;5036350;28;20036;-78
2022/05/25 08:34:01;;;;;;;9.17;4.00;;;;;;;-146.64;100.00;37733.56;5041783;28;20108;-78
2022/05/25 08:36:26;;;;;;;11.20;3.93;;;;;;;-146.64;100.00;37637.41;5064515;28;20070;-78
2022/05/25 08:38:55;;;;;;;6.13;3.43;;;;;;;-146.64;100.00;37764.25;5066816;28;20119;-78
2022/05/25 08:41:26;;;;;;;10.38;3.40;;;;;;;-146.64;100.00;37895.19;5068297;28;20044;-78
2022/05/25 08:43:54;;;;;;;9.13;3.38;;;;;;;-146.64;100.00;37899.28;5052438;28;20029;-77
2022/05/25 08:46:22;;;;;;;5.53;2.92;;;;;;;-146.64;100.00;37932.03;5067355;28;20396;-78
2022/05/25 08:48:47;;;;;;;6.18;2.85;;;;;;;-146.64;100.00;37897.25;5068942;28;20029;-78
2022/05/25 08:51:16;;;;;;;9.30;2.20;;;;;;;-146.64;100.00;37823.59;5049939;28;20478;-78
2022/05/25 08:53:42;;;;;;;6.40;2.00;;;;;;;-146.64;100.00;37766.31;5067273;28;20052;-78
2022/05/25 08:56:38;;;;;;;10.10;2.40;;;;;;;-146.64;100.00;37762.22;5050869;28;20508;-78
2022/05/25 08:59:24;;;;;;;5.85;2.13;;;;;;;-146.64;100.00;37649.69;5068037;28;20036;-78
2022/05/25 09:02:01;;;;;;;6.85;2.10;;;;;;;-146.64;100.00;37692.66;5065458;28;20037;-78
2022/05/25 09:04:45;;;;;;;8.68;1.52;;;;;;;-146.64;100.00;37942.25;5050223;28;20078;-78
2022/05/25 09:07:32;;;;;;;6.80;1.92;;;;;;;-146.64;100.00;37968.84;5058740;28;20022;-77
2022/05/25 09:09:58;;;;;;;4.18;1.67;;;;;;;-146.64;100.00;37778.59;5049959;28;20033;-77
2022/05/25 09:12:34;;;;;;;7.13;1.50;;;;;;;-146.64;100.00;37882.91;5067947;28;20086;-78
2022/05/25 09:15:23;;;;;;;3.75;2.00;;;;;;;-146.64;100.00;37774.50;5052029;28;20442;-77
2022/05/25 09:17:54;;;;;;;2.55;1.10;;;;;;;-146.64;100.00;37934.06;5043141;28;20041;-77
2022/05/25 09:20:23;;;;;;;5.60;1.55;;;;;;;-146.64;100.00;38032.25;5065516;28;20111;-77
2022/05/25 09:22:48;;;;;;;6.20;1.50;;;;;;;-146.64;100.00;37829.72;5047389;28;20452;-77
2022/05/25 09:25:15;;;;;;;4.37;1.30;;;;;;;-146.64;100.00;37819.50;5030432;28;20079;-78
2022/05/25 09:27:43;;;;;;;;;;;;;;;-146.64;100.00;37811.31;5018334;28;20337;-78
2022/05/25 09:30:10;;;;;;;3.78;1.45;;;;;;;-146.64;90.97;37872.69;5068075;28;19955;-78
2022/05/25 09:32:50;;;;;;;16.75;2.55;;;;;;;-146.64;92.55;37721.28;5047195;28;20033;-77
2022/05/25 09:35:36;;;;;;;4.05;1.20;;;;;;;-146.64;93.86;37909.50;5038457;28;20155;-78
2022/05/25 09:38:16;;;;;;;6.90;1.42;;;;;;;-146.64;90.48;37621.06;5046250;28;20139;-78
2022/05/25 09:40:49;;;;;;;7.38;1.77;;;;;;;-146.64;86.19;37506.50;5015938;28;20037;-77
2022/05/25 09:43:23;;;;;;;4.72;1.40;;;;;;;-146.64;76.22;37653.78;5063885;28;20040;-77
2022/05/25 09:45:50;;;;;;;4.10;1.35;;;;;;;-146.64;81.21;37799.03;5039747;28;20072;-77
2022/05/25 09:48:22;;;;;;;4.72;1.20;;;;;;;-146.64;87.64;37938.16;5046861;28;20040;-78
2022/05/25 09:50:59;;;;;;;7.22;1.55;;;;;;;-146.64;86.29;37938.16;5040971;28;20028;-77
2022/05/25 09:53:25;;;;;;;5.22;1.38;;;;;;;-146.64;93.54;37983.16;5034592;28;20032;-77
2022/05/25 09:55:56;;;;;;;3.53;1.38;;;;;;;-146.64;92.19;38134.56;5068407;28;20040;-77
2022/05/25 09:58:36;;;;;;;5.68;1.48;;;;;;;-146.64;90.52;38167.31;5062713;28;20029;-77
2022/05/25 10:01:06;;;;;;;3.13;1.27;;;;;;;-146.64;92.26;38093.66;5048174;28;20029;-77
2022/05/25 10:03:39;;;;;;;6.15;1.30;;;;;;;-146.64;92.92;38071.13;5048188;28;20020;-77
2022/05/25 10:06:29;;;;;;;3.50;1.27;;;;;;;-146.64;88.17;38081.38;5051854;28;20037;-77
2022/05/25 10:09:20;;;;;;;5.30;1.40;;;;;;;-146.64;91.37;38130.47;5054759;28;20087;-78
2022/05/25 10:11:55;;;;;;;5.35;1.30;;;;;;;-146.64;86.98;38181.63;5060909;28;20139;-77
2022/05/25 10:14:37;;;;;;;5.57;1.30;;;;;;;-146.64;86.34;38058.88;5064115;28;20514;-77
2022/05/25 10:17:13;;;;;;;6.45;1.17;;;;;;;-146.64;80.19;37813.34;5042783;28;20040;-77
2022/05/25 10:19:51;;;;;;;4.20;1.23;;;;;;;-146.64;79.03;37946.34;5040032;28;20504;-77
2022/05/25 10:22:32;;;;;;;2.72;1.02;;;;;;;-146.64;79.67;38126.38;5037435;28;20021;-76
2022/05/25 10:25:09;;;;;;;3.53;1.23;;;;;;;-146.64;83.43;38152.97;5073052;28;20052;-78
2022/05/25 10:27:42;;;;;;;;;;;;;;;-146.64;83.66;38105.91;5037849;28;20029;-79
2022/05/25 10:38:44;;;;;;;23.27;1.40;;;;;;;-146.64;81.82;38073.19;5064026;28;20043;-78
2022/05/25 10:44:05;;;;;;;2.30;0.90;;;;;;;-146.64;65.14;37815.41;5056918;28;20035;-78
2022/05/25 10:46:31;;;;;;;3.00;0.75;;;;;;;-146.64;65.76;38024.09;5053781;28;20036;-78
2022/05/25 10:49:40;;;;;;;6.17;1.13;;;;;;;-146.64;69.43;38101.81;5053119;28;20052;-78
2022/05/25 10:52:35;;;;;;;3.70;1.00;;;;;;;-146.64;72.10;37956.56;4974857;28;20042;-79
2022/05/25 10:55:01;;;;;;;3.60;0.75;;;;;;;-146.64;72.33;37848.13;4974170;28;20120;-78
2022/05/25 10:57:49;;;;;;;4.10;1.10;;;;;;;-146.64;69.09;37893.16;5026718;28;20044;-78
2022/05/25 11:00:19;;;;;;;7.68;1.25;;;;;;;-146.64;70.92;37790.84;5070981;28;20032;-78
2022/05/25 11:03:20;;;;;;;4.97;1.10;;;;;;;-146.64;68.18;37565.81;5054377;28;20067;-77
2022/05/25 11:06:09;;;;;;;7.75;1.20;;;;;;;-146.64;68.78;37522.88;5017616;28;20078;-79
2022/05/25 11:08:44;;;;;;;9.32;1.38;;;;;;;-146.64;67.28;37901.31;5052921;28;20016;-78
2022/05/25 11:11:12;;;;;;;7.57;1.38;;;;;;;-146.64;67.35;37815.41;5043810;28;20039;-78
2022/05/25 11:13:56;;;;;;;6.57;1.15;;;;;;;-146.64;67.83;37938.16;5066248;28;20035;-78
2022/05/25 11:16:58;;;;;;;5.00;1.48;;;;;;;-146.64;67.94;37999.53;5061016;28;20028;-77
2022/05/25 11:19:44;;;;;;;5.93;1.20;;;;;;;-146.64;64.71;37977.03;5031050;28;20047;-77
2022/05/25 11:22:34;;;;;;;3.08;1.10;;;;;;;-146.64;63.85;37659.94;5038464;28;20048;-78
2022/05/25 11:25:09;;;;;;;3.63;1.00;;;;;;;-146.64;65.03;37614.91;5043116;28;20128;-78
2022/05/25 11:27:46;;;;;;;5.13;1.20;;;;;;;-146.64;62.38;37790.84;5069845;28;20052;-77
2022/05/25 11:30:24;;;;;;;8.38;1.23;;;;;;;-146.64;67.33;37974.97;5053349;28;20077;-78
2022/05/25 11:33:06;;;;;;;7.97;1.30;;;;;;;-146.64;72.76;37964.75;5066827;28;20550;-79
2022/05/25 11:35:53;;;;;;;5.85;1.50;;;;;;;-146.64;75.41;37938.16;5060018;28;20063;-79
2022/05/25 11:38:48;;;;;;;6.28;1.70;;;;;;;-146.64;75.61;38052.72;5064855;28;20021;-78
2022/05/25 11:41:19;;;;;;;5.03;1.98;;;;;;;-146.64;78.72;38155.03;5067351;28;20041;-77
2022/05/25 11:44:00;;;;;;;4.05;1.30;;;;;;;-146.64;81.09;38228.69;5064315;28;20032;-78
2022/05/25 11:46:40;;;;;;;10.07;2.15;;;;;;;-146.64;83.21;38257.31;5026804;28;20560;-78